Time;durP1;ratioP1;P1;durP2;ratioP2;P2;SDS_P1;SDS_P2;PMS_P1;PMS_P2;Temp;Humidity;BMP_temperature;BMP_pressure;BME280_temperature;BME280_humidity;BME280_pressure;Samples;Min_cycle;Max_cycle;Signal;HPM_P1;HPM_P2
2021/12/18 00:00:00;;;;;;;82.03;12.07;;;;;;;;;;5077235;28;20435;-70
2021/12/18 00:02:26;;;;;;;99.03;12.07;;;;;;;;;;5079681;28;20090;-70
2021/12/18 00:04:52;;;;;;;65.60;10.73;;;;;;;;;;5090430;28;20192;-70
2021/12/18 00:07:18;;;;;;;16.67;4.30;;;;;;;;;;5061149;28;20041;-70
2021/12/18 00:09:46;;;;;;;39.30;6.93;;;;;;;;;;5071079;28;20044;-70
2021/12/18 00:12:12;;;;;;;36.53;6.50;;;;;;;;;;5089118;28;20070;-70
2021/12/18 00:14:38;;;;;;;66.23;8.83;;;;;;;;;;5091287;28;20040;-70
2021/12/18 00:17:04;;;;;;;53.70;8.37;;;;;;;;;;5090685;28;20116;-70
2021/12/18 00:19:30;;;;;;;42.53;7.53;;;;;;;;;;5072987;28;20048;-70
2021/12/18 00:21:56;;;;;;;35.33;7.20;;;;;;;;;;5072629;28;20082;-70
2021/12/18 00:24:24;;;;;;;42.67;7.47;;;;;;;;;;5054129;28;20155;-70
2021/12/18 00:26:50;;;;;;;41.97;7.27;;;;;;;;;;5069888;28;20048;-70
2021/12/18 00:29:16;;;;;;;56.73;8.50;;;;;;;;;;5070755;28;20411;-70
2021/12/18 00:31:42;;;;;;;77.13;9.57;;;;;;;;;;5052530;28;20796;-70
2021/12/18 00:34:08;;;;;;;46.90;7.20;;;;;;;;;;5052558;28;20494;-70
2021/12/18 00:36:34;;;;;;;51.57;8.77;;;;;;;;;;5035802;28;20051;-70
2021/12/18 00:39:00;;;;;;;54.80;7.70;;;;;;;;;;5052868;28;20071;-70
2021/12/18 00:41:46;;;;;;;49.63;6.83;;;;;;;;;;5070071;28;20048;-70
2021/12/18 00:44:16;;;;;;;42.07;6.60;;;;;;;;;;5052480;28;20130;-70
2021/12/18 00:46:44;;;;;;;33.73;5.77;;;;;;;;;;5069959;28;20052;-71
2021/12/18 00:49:16;;;;;;;26.77;5.10;;;;;;;;;;5051816;28;20059;-71
2021/12/18 00:51:42;;;;;;;27.53;4.40;;;;;;;;;;5056006;28;20053;-70
2021/12/18 00:54:08;;;;;;;28.37;5.37;;;;;;;;;;5068854;28;20055;-70
2021/12/18 00:56:34;;;;;;;43.87;5.70;;;;;;;;;;5052027;28;20425;-70
2021/12/18 00:59:00;;;;;;;21.70;4.57;;;;;;;;;;5075087;28;20044;-70
2021/12/18 01:01:27;;;;;;;26.63;5.17;;;;;;;;;;5084582;28;20051;-70
2021/12/18 01:03:54;;;;;;;41.87;5.80;;;;;;;;;;5082393;28;20141;-70
2021/12/18 01:06:21;;;;;;;46.97;6.93;;;;;;;;;;5052209;28;20111;-70
2021/12/18 01:08:50;;;;;;;46.97;6.67;;;;;;;;;;5066684;28;20058;-70
2021/12/18 01:11:41;;;;;;;38.17;6.07;;;;;;;;;;5054668;28;20047;-70
2021/12/18 01:25:05;;;;;;;50.93;7.93;;;;;;;;;;5089608;28;20075;-70
2021/12/18 01:27:31;;;;;;;36.53;5.93;;;;;;;;;;5071256;28;20036;-70
2021/12/18 01:29:57;;;;;;;49.67;6.97;;;;;;;;;;5071153;28;20600;-70
2021/12/18 01:32:25;;;;;;;64.13;7.20;;;;;;;;;;5089389;28;20044;-70
2021/12/18 01:34:51;;;;;;;74.93;6.53;;;;;;;;;;5089420;28;20093;-70
2021/12/18 01:37:17;;;;;;;93.43;8.10;;;;;;;;;;5089420;28;20132;-70
2021/12/18 01:39:43;;;;;;;38.57;4.70;;;;;;;;;;5077021;28;20449;-70
2021/12/18 01:52:59;;;;;;;23.50;3.60;;;;;;;;;;5070249;28;20040;-70
2021/12/18 01:55:30;;;;;;;24.23;4.23;;;;;;;;;;5070815;28;20048;-70
2021/12/18 01:57:56;;;;;;;22.60;3.90;;;;;;;;;;5089143;28;20044;-70
2021/12/18 02:00:25;;;;;;;32.70;4.23;;;;;;;;;;5088879;28;20135;-70
2021/12/18 02:02:51;;;;;;;26.70;4.27;;;;;;;;;;5071184;28;20399;-70
2021/12/18 02:05:17;;;;;;;34.03;4.57;;;;;;;;;;5070746;28;20044;-70
2021/12/18 02:07:43;;;;;;;13.27;2.90;;;;;;;;;;5071095;28;20040;-70
2021/12/18 02:10:17;;;;;;;37.43;4.43;;;;;;;;;;5070782;28;20040;-70
2021/12/18 02:12:52;;;;;;;41.40;5.27;;;;;;;;;;5071036;28;20044;-70
2021/12/18 02:20:49;;;;;;;17.87;3.10;;;;;;;;;;5071015;28;20109;-70
2021/12/18 02:23:16;;;;;;;18.57;3.33;;;;;;;;;;5089103;28;20048;-70
2021/12/18 02:25:43;;;;;;;37.97;4.60;;;;;;;;;;5070756;28;20055;-70
2021/12/18 02:28:17;;;;;;;26.63;4.20;;;;;;;;;;5070903;28;20040;-71
2021/12/18 02:30:44;;;;;;;38.43;4.60;;;;;;;;;;5070696;28;20058;-70
2021/12/18 02:33:10;;;;;;;41.97;4.87;;;;;;;;;;5070479;28;20051;-70
2021/12/18 02:35:43;;;;;;;43.90;4.43;;;;;;;;;;5074812;28;20536;-70
2021/12/18 02:38:13;;;;;;;20.95;3.25;;;;;;;;;;5074975;28;20127;-70
2021/12/18 02:43:25;;;;;;;26.53;3.40;;;;;;;;;;5091908;28;20143;-70
2021/12/18 02:45:54;;;;;;;22.80;3.47;;;;;;;;;;5073716;28;20047;-70
2021/12/18 02:48:21;;;;;;;30.03;3.80;;;;;;;;;;5074705;28;20075;-70
2021/12/18 02:50:47;;;;;;;25.10;3.53;;;;;;;;;;5065442;28;20055;-70
2021/12/18 02:53:13;;;;;;;22.73;3.33;;;;;;;;;;5071732;28;20186;-70
2021/12/18 02:55:39;;;;;;;44.03;5.03;;;;;;;;;;5088479;28;20143;-70
2021/12/18 02:58:05;;;;;;;34.53;4.50;;;;;;;;;;5072242;28;20048;-70
2021/12/18 03:00:31;;;;;;;37.40;4.10;;;;;;;;;;5061622;28;20494;-70
2021/12/18 03:02:58;;;;;;;51.50;5.17;;;;;;;;;;5073783;28;20043;-71
2021/12/18 03:05:32;;;;;;;45.23;4.70;;;;;;;;;;5087583;28;20040;-70
2021/12/18 03:08:07;;;;;;;63.13;7.37;;;;;;;;;;5091841;28;20505;-71
2021/12/18 03:25:24;;;;;;;31.47;4.97;;;;;;;;;;5031134;28;20102;-70
2021/12/18 03:27:28;;;;;;;52.90;7.80;;;;;;;;;;5040326;28;20059;-70
2021/12/18 03:29:55;;;;;;;62.17;7.63;;;;;;;;;;5053798;28;20071;-70
2021/12/18 03:32:21;;;;;;;33.37;4.97;;;;;;;;;;5053718;28;20050;-70
2021/12/18 03:34:48;;;;;;;46.37;6.50;;;;;;;;;;5053415;28;20052;-71
2021/12/18 03:37:14;;;;;;;41.47;5.83;;;;;;;;;;5063082;28;20040;-70
2021/12/18 03:39:40;;;;;;;46.73;6.10;;;;;;;;;;5062571;28;20490;-70
2021/12/18 03:42:06;;;;;;;36.53;5.57;;;;;;;;;;5061281;28;20086;-70
2021/12/18 03:44:33;;;;;;;43.60;6.23;;;;;;;;;;5081000;28;20422;-70
2021/12/18 03:46:59;;;;;;;53.20;7.10;;;;;;;;;;5080069;28;20402;-69
2021/12/18 03:49:25;;;;;;;55.83;7.07;;;;;;;;;;5061546;28;20561;-70
2021/12/18 03:51:51;;;;;;;68.97;6.93;;;;;;;;;;5060990;28;20076;-69
2021/12/18 03:54:17;;;;;;;38.73;6.20;;;;;;;;;;5044694;28;20058;-69
2021/12/18 03:56:43;;;;;;;32.47;5.30;;;;;;;;;;5062181;28;20048;-69
2021/12/18 03:59:09;;;;;;;29.90;5.17;;;;;;;;;;5044427;28;20044;-69
2021/12/18 04:01:35;;;;;;;67.00;6.97;;;;;;;;;;5059945;28;20044;-70
2021/12/18 04:04:01;;;;;;;37.73;5.20;;;;;;;;;;5053485;28;20055;-70
2021/12/18 04:06:27;;;;;;;40.67;5.47;;;;;;;;;;5058064;28;20703;-70
2021/12/18 04:08:53;;;;;;;19.50;3.80;;;;;;;;;;5062062;28;20048;-70
2021/12/18 04:11:23;;;;;;;14.20;3.13;;;;;;;;;;5062163;28;20107;-70
2021/12/18 04:13:49;;;;;;;41.43;4.60;;;;;;;;;;5076013;28;20051;-70
2021/12/18 04:16:15;;;;;;;21.93;3.50;;;;;;;;;;5070850;28;20041;-70
2021/12/18 04:18:41;;;;;;;38.83;4.53;;;;;;;;;;5070725;28;20044;-70
2021/12/18 04:21:08;;;;;;;63.10;5.27;;;;;;;;;;5055149;28;20049;-70
2021/12/18 04:23:34;;;;;;;38.77;4.23;;;;;;;;;;5068789;28;20490;-70
2021/12/18 04:26:00;;;;;;;50.03;5.13;;;;;;;;;;5068677;28;20616;-70
2021/12/18 04:28:27;;;;;;;33.87;4.17;;;;;;;;;;5068966;28;20075;-70
2021/12/18 04:30:54;;;;;;;44.57;5.70;;;;;;;;;;5068204;28;20091;-70
2021/12/18 04:33:20;;;;;;;38.30;5.13;;;;;;;;;;5068611;28;20074;-70
2021/12/18 04:35:46;;;;;;;51.23;5.97;;;;;;;;;;5083645;28;20119;-70
2021/12/18 04:38:12;;;;;;;24.90;4.30;;;;;;;;;;5087381;28;20086;-70
2021/12/18 04:40:40;;;;;;;32.53;5.50;;;;;;;;;;5080839;28;20093;-70
2021/12/18 04:43:06;;;;;;;37.53;5.57;;;;;;;;;;5066607;28;20501;-70
2021/12/18 04:45:32;;;;;;;22.27;4.97;;;;;;;;;;5071277;28;20082;-70
2021/12/18 04:47:58;;;;;;;32.10;5.50;;;;;;;;;;5070250;28;20084;-70
2021/12/18 04:50:24;;;;;;;39.70;6.83;;;;;;;;;;5090135;28;20055;-71
2021/12/18 04:52:51;;;;;;;26.60;5.73;;;;;;;;;;5090247;28;20198;-71
2021/12/18 04:55:17;;;;;;;37.87;6.47;;;;;;;;;;5072099;28;20044;-71
2021/12/18 04:57:43;;;;;;;18.67;4.23;;;;;;;;;;5089243;28;20075;-70
2021/12/18 05:00:12;;;;;;;33.80;5.10;;;;;;;;;;5070460;28;20048;-70
2021/12/18 05:02:42;;;;;;;32.07;5.57;;;;;;;;;;5060348;28;20074;-70
2021/12/18 05:05:08;;;;;;;52.80;7.27;;;;;;;;;;5076914;28;20032;-70
2021/12/18 05:07:34;;;;;;;30.40;6.00;;;;;;;;;;5075967;28;20459;-70
2021/12/18 05:10:00;;;;;;;50.53;6.83;;;;;;;;;;5074968;28;20519;-70
2021/12/18 05:12:26;;;;;;;28.23;5.40;;;;;;;;;;5060659;28;20040;-70
2021/12/18 05:14:52;;;;;;;25.67;4.73;;;;;;;;;;5077992;28;20048;-70
2021/12/18 05:17:18;;;;;;;31.80;4.83;;;;;;;;;;5062982;28;20052;-69
2021/12/18 05:19:44;;;;;;;30.57;4.63;;;;;;;;;;5064509;28;20051;-70
2021/12/18 05:22:10;;;;;;;32.87;4.60;;;;;;;;;;5079588;28;20048;-70
2021/12/18 05:24:36;;;;;;;37.30;5.63;;;;;;;;;;5074814;28;20044;-70
2021/12/18 05:27:03;;;;;;;20.93;3.83;;;;;;;;;;5060550;28;20491;-70
2021/12/18 05:29:29;;;;;;;30.73;4.27;;;;;;;;;;5077694;28;20562;-70
2021/12/18 05:31:58;;;;;;;41.13;5.07;;;;;;;;;;5058425;28;20059;-70
2021/12/18 05:34:26;;;;;;;35.17;4.40;;;;;;;;;;5081535;28;20156;-70
2021/12/18 05:39:21;;;;;;;24.47;3.23;;;;;;;;;;5079176;28;20041;-70
2021/12/18 05:41:50;;;;;;;20.60;4.00;;;;;;;;;;5061562;28;20415;-70
2021/12/18 05:44:17;;;;;;;26.60;3.73;;;;;;;;;;5081142;28;20040;-70
2021/12/18 05:46:43;;;;;;;26.40;4.00;;;;;;;;;;5057843;28;20051;-70
2021/12/18 05:49:09;;;;;;;18.67;3.30;;;;;;;;;;5061106;28;20143;-70
2021/12/18 05:51:37;;;;;;;15.33;3.10;;;;;;;;;;5059541;28;20568;-70
2021/12/18 05:54:03;;;;;;;27.77;3.97;;;;;;;;;;5059656;28;20080;-70
2021/12/18 05:56:29;;;;;;;14.50;3.00;;;;;;;;;;5080508;28;20035;-70
2021/12/18 05:58:55;;;;;;;14.97;2.43;;;;;;;;;;5063671;28;20044;-70
2021/12/18 06:01:21;;;;;;;19.87;3.57;;;;;;;;;;5080986;28;20075;-70
2021/12/18 06:03:48;;;;;;;87.33;10.37;;;;;;;;;;5060054;28;20762;-70
2021/12/18 06:06:14;;;;;;;44.57;4.90;;;;;;;;;;5077132;28;20048;-70
2021/12/18 06:08:42;;;;;;;37.23;5.00;;;;;;;;;;5077182;28;20050;-70
2021/12/18 06:11:13;;;;;;;38.97;4.60;;;;;;;;;;5080351;28;20079;-70
2021/12/18 06:13:39;;;;;;;963.67;112.87;;;;;;;;;;5076550;28;20128;-70
2021/12/18 06:16:06;;;;;;;52.20;5.40;;;;;;;;;;5077852;28;20198;-70
2021/12/18 06:18:33;;;;;;;275.03;21.10;;;;;;;;;;5056091;28;20425;-70
2021/12/18 06:20:59;;;;;;;32.87;4.23;;;;;;;;;;5076195;28;20105;-70
2021/12/18 06:23:25;;;;;;;48.37;5.37;;;;;;;;;;5057314;28;20374;-70
2021/12/18 06:25:51;;;;;;;38.43;4.20;;;;;;;;;;5058743;28;20075;-70
2021/12/18 06:28:17;;;;;;;39.33;4.30;;;;;;;;;;5079999;28;20040;-71
2021/12/18 06:30:43;;;;;;;44.93;4.43;;;;;;;;;;5084032;28;20127;-70
2021/12/18 06:33:09;;;;;;;34.80;4.10;;;;;;;;;;5068876;28;20131;-70
2021/12/18 06:35:35;;;;;;;50.23;4.97;;;;;;;;;;5053473;28;20048;-70
2021/12/18 06:38:01;;;;;;;33.20;4.63;;;;;;;;;;5086731;28;20055;-71
2021/12/18 06:40:27;;;;;;;39.77;4.60;;;;;;;;;;5070639;28;20052;-70
2021/12/18 06:42:53;;;;;;;85.77;6.93;;;;;;;;;;5088754;28;20127;-70
2021/12/18 06:45:19;;;;;;;41.30;4.90;;;;;;;;;;5070616;28;20047;-70
2021/12/18 06:47:45;;;;;;;33.17;4.70;;;;;;;;;;5088267;28;20044;-70
2021/12/18 06:50:11;;;;;;;34.93;4.57;;;;;;;;;;5070594;28;20394;-70
2021/12/18 06:52:38;;;;;;;33.87;5.13;;;;;;;;;;5088232;28;20206;-70
2021/12/18 06:55:04;;;;;;;29.93;4.60;;;;;;;;;;5069536;28;20116;-70
2021/12/18 06:57:30;;;;;;;36.93;4.80;;;;;;;;;;5088501;28;20047;-71
2021/12/18 06:59:56;;;;;;;42.13;5.17;;;;;;;;;;5053034;28;20133;-70
2021/12/18 07:02:22;;;;;;;38.90;5.60;;;;;;;;;;5069982;28;20044;-70
2021/12/18 07:04:48;;;;;;;39.17;5.70;;;;;;;;;;5068111;28;20032;-70
2021/12/18 07:07:15;;;;;;;42.13;5.53;;;;;;;;;;5068990;28;20051;-70
2021/12/18 07:09:41;;;;;;;44.23;5.53;;;;;;;;;;5070100;28;20047;-70
2021/12/18 07:12:10;;;;;;;40.97;5.27;;;;;;;;;;5081818;28;20502;-70
2021/12/18 07:14:36;;;;;;;36.27;4.53;;;;;;;;;;5069719;28;20052;-70
2021/12/18 07:17:02;;;;;;;39.03;5.03;;;;;;;;;;5066946;28;20051;-70
2021/12/18 07:19:28;;;;;;;34.10;4.80;;;;;;;;;;5066461;28;20067;-71
2021/12/18 07:21:54;;;;;;;38.53;4.87;;;;;;;;;;5070558;28;20102;-70
2021/12/18 07:24:20;;;;;;;37.87;5.33;;;;;;;;;;5069933;28;20045;-70
2021/12/18 07:26:46;;;;;;;41.47;5.67;;;;;;;;;;5070474;28;20040;-70
2021/12/18 07:29:12;;;;;;;42.87;5.77;;;;;;;;;;5068763;28;20561;-71
2021/12/18 07:31:38;;;;;;;400.50;34.77;;;;;;;;;;5070273;28;20048;-70
2021/12/18 07:34:04;;;;;;;38.63;5.67;;;;;;;;;;5067512;28;20048;-70
2021/12/18 07:36:30;;;;;;;34.73;5.67;;;;;;;;;;5066986;28;20128;-70
2021/12/18 07:38:56;;;;;;;152.10;12.37;;;;;;;;;;5069457;28;20487;-70
2021/12/18 07:41:22;;;;;;;37.47;5.43;;;;;;;;;;5070190;28;20094;-70
2021/12/18 07:43:48;;;;;;;37.40;4.87;;;;;;;;;;5064008;28;20041;-70
2021/12/18 07:46:14;;;;;;;53.80;6.30;;;;;;;;;;5069407;28;20453;-70
2021/12/18 07:48:40;;;;;;;34.67;5.00;;;;;;;;;;5070306;28;20560;-70
2021/12/18 07:51:06;;;;;;;35.83;5.00;;;;;;;;;;5069567;28;20087;-70
2021/12/18 07:53:32;;;;;;;41.10;5.67;;;;;;;;;;5053138;28;20103;-70
2021/12/18 07:55:59;;;;;;;52.13;7.23;;;;;;;;;;5069570;28;20537;-70
2021/12/18 07:58:25;;;;;;;46.30;5.90;;;;;;;;;;5066668;28;20086;-70
2021/12/18 08:00:51;;;;;;;35.47;5.70;;;;;;;;;;5069076;28;20405;-71
2021/12/18 08:03:17;;;;;;;47.43;6.60;;;;;;;;;;5069632;28;20047;-70
2021/12/18 08:05:43;;;;;;;38.67;5.57;;;;;;;;;;5070584;28;20051;-70
2021/12/18 08:08:09;;;;;;;60.83;8.13;;;;;;;;;;5067969;28;20044;-70
2021/12/18 08:10:35;;;;;;;39.03;5.17;;;;;;;;;;5068085;28;20080;-71
2021/12/18 08:13:01;;;;;;;38.27;6.43;;;;;;;;;;5069614;28;20439;-70
2021/12/18 08:15:27;;;;;;;43.47;5.90;;;;;;;;;;5070647;28;20037;-71
2021/12/18 08:17:53;;;;;;;102.87;9.47;;;;;;;;;;5085230;28;20143;-70
2021/12/18 08:20:19;;;;;;;59.53;6.90;;;;;;;;;;5072667;28;20093;-70
2021/12/18 08:22:45;;;;;;;37.33;6.03;;;;;;;;;;5072141;28;20047;-70
2021/12/18 08:25:11;;;;;;;48.40;5.83;;;;;;;;;;5072451;28;20040;-71
2021/12/18 08:27:37;;;;;;;34.83;6.43;;;;;;;;;;5071869;28;20047;-71
2021/12/18 08:30:04;;;;;;;53.73;8.07;;;;;;;;;;5072214;28;20040;-70
2021/12/18 08:32:30;;;;;;;54.27;7.70;;;;;;;;;;5070280;28;20048;-70
2021/12/18 08:34:56;;;;;;;46.30;6.70;;;;;;;;;;5072066;28;20054;-70
2021/12/18 08:37:22;;;;;;;46.30;7.67;;;;;;;;;;5071899;28;20055;-70
2021/12/18 08:39:49;;;;;;;58.03;8.87;;;;;;;;;;5090036;28;20073;-71
2021/12/18 08:42:15;;;;;;;71.47;9.37;;;;;;;;;;5071948;28;20131;-70
2021/12/18 08:44:41;;;;;;;62.87;8.77;;;;;;;;;;5070392;28;20053;-70
2021/12/18 08:47:07;;;;;;;47.20;8.87;;;;;;;;;;5071543;28;20111;-70
2021/12/18 08:49:33;;;;;;;70.03;10.30;;;;;;;;;;5071549;28;20044;-71
2021/12/18 08:51:59;;;;;;;59.50;9.43;;;;;;;;;;5071274;28;20831;-71
2021/12/18 08:54:26;;;;;;;72.67;9.80;;;;;;;;;;5089713;28;20040;-70
2021/12/18 08:56:51;;;;;;;45.30;8.23;;;;;;;;;;5089384;28;20454;-71
2021/12/18 08:59:17;;;;;;;80.53;12.03;;;;;;;;;;5067366;28;20071;-71
2021/12/18 09:01:44;;;;;;;50.67;8.87;;;;;;;;;;5070531;28;20123;-71
2021/12/18 09:04:10;;;;;;;59.50;9.13;;;;;;;;;;5064058;28;20151;-71
2021/12/18 09:06:36;;;;;;;47.80;8.30;;;;;;;;;;5088090;28;20089;-71
2021/12/18 09:09:02;;;;;;;107.33;14.87;;;;;;;;;;5088099;28;20052;-71
2021/12/18 09:11:28;;;;;;;50.57;9.83;;;;;;;;;;5069445;28;20096;-71
2021/12/18 09:13:54;;;;;;;65.60;9.53;;;;;;;;;;5053048;28;20040;-70
2021/12/18 09:16:20;;;;;;;60.57;9.60;;;;;;;;;;5067529;28;20048;-71
2021/12/18 09:18:46;;;;;;;97.40;12.93;;;;;;;;;;5070754;28;20106;-71
2021/12/18 09:21:12;;;;;;;72.57;11.40;;;;;;;;;;5071521;28;20402;-70
2021/12/18 09:23:38;;;;;;;76.77;10.70;;;;;;;;;;5068968;28;20052;-71
2021/12/18 09:26:04;;;;;;;65.60;9.97;;;;;;;;;;5053255;28;20055;-70
2021/12/18 09:28:31;;;;;;;54.20;9.77;;;;;;;;;;5070048;28;20093;-70
2021/12/18 09:30:57;;;;;;;72.03;12.17;;;;;;;;;;5070817;28;20375;-70
2021/12/18 09:33:23;;;;;;;63.07;11.00;;;;;;;;;;5069730;28;20048;-71
2021/12/18 09:35:49;;;;;;;84.50;12.80;;;;;;;;;;5071012;28;20103;-70
2021/12/18 09:38:15;;;;;;;77.20;12.40;;;;;;;;;;5069815;28;20402;-71
2021/12/18 09:40:41;;;;;;;54.73;10.47;;;;;;;;;;5051631;28;20032;-70
2021/12/18 09:43:07;;;;;;;63.90;11.30;;;;;;;;;;5068447;28;20127;-71
2021/12/18 09:45:33;;;;;;;53.00;9.67;;;;;;;;;;5070010;28;20086;-71
2021/12/18 09:48:00;;;;;;;82.90;12.77;;;;;;;;;;5069446;28;20147;-71
2021/12/18 09:50:27;;;;;;;50.10;9.33;;;;;;;;;;5086816;28;20096;-71
2021/12/18 09:52:54;;;;;;;43.60;9.23;;;;;;;;;;5070104;28;20044;-71
2021/12/18 09:55:20;;;;;;;85.67;12.20;;;;;;;;;;5088821;28;20518;-71
2021/12/18 09:57:46;;;;;;;73.90;11.60;;;;;;;;;;5068408;28;20059;-71
2021/12/18 10:00:15;;;;;;;49.53;10.00;;;;;;;;;;5070500;28;20667;-71
2021/12/18 10:02:41;;;;;;;67.10;11.23;;;;;;;;;;5068768;28;20083;-71
2021/12/18 10:05:07;;;;;;;70.20;11.67;;;;;;;;;;5058778;28;20093;-71
2021/12/18 10:07:33;;;;;;;53.93;10.10;;;;;;;;;;5043397;28;20063;-71
2021/12/18 10:10:00;;;;;;;48.70;9.87;;;;;;;;;;5085718;28;20111;-71
2021/12/18 10:12:33;;;;;;;46.77;10.10;;;;;;;;;;5068002;28;20073;-70
2021/12/18 10:14:59;;;;;;;59.28;9.32;;;;;;;;;;5070628;28;20036;-70
2021/12/18 10:17:30;;;;;;;43.63;9.93;;;;;;;;;;5087207;28;20093;-70
2021/12/18 10:20:11;;;;;;;46.63;8.83;;;;;;;;;;5087653;28;20056;-71
2021/12/18 10:22:37;;;;;;;92.37;14.33;;;;;;;;;;5057632;28;20048;-70
2021/12/18 10:25:05;;;;;;;39.80;8.80;;;;;;;;;;5086709;28;20047;-70
2021/12/18 10:27:31;;;;;;;42.57;9.87;;;;;;;;;;5087665;28;21001;-71
2021/12/18 10:30:09;;;;;;;64.83;11.60;;;;;;;;;;5088239;28;20105;-71
2021/12/18 10:32:35;;;;;;;38.37;8.87;;;;;;;;;;5069206;28;20047;-70
2021/12/18 10:35:01;;;;;;;29.77;8.80;;;;;;;;;;5070214;28;20406;-70
2021/12/18 10:37:28;;;;;;;50.53;9.97;;;;;;;;;;5051728;28;20536;-70
2021/12/18 10:39:54;;;;;;;71.93;12.53;;;;;;;;;;5051743;28;20044;-71
2021/12/18 10:42:27;;;;;;;69.17;12.17;;;;;;;;;;5067457;28;20859;-71
2021/12/18 10:45:08;;;;;;;34.40;8.48;;;;;;;;;;5088265;28;20055;-71
2021/12/18 10:47:47;;;;;;;27.37;7.23;;;;;;;;;;5069503;28;20117;-70
2021/12/18 10:50:16;;;;;;;41.50;9.47;;;;;;;;;;5062972;28;20071;-71
2021/12/18 10:52:42;;;;;;;31.77;8.93;;;;;;;;;;5078202;28;20109;-71
2021/12/18 10:55:08;;;;;;;41.97;9.23;;;;;;;;;;5073764;28;20770;-71
2021/12/18 10:57:34;;;;;;;44.87;10.27;;;;;;;;;;5073727;28;20086;-71
2021/12/18 11:00:00;;;;;;;25.07;7.53;;;;;;;;;;5055404;28;20048;-70
2021/12/18 11:02:27;;;;;;;34.50;8.83;;;;;;;;;;5063584;28;20132;-71
2021/12/18 11:04:54;;;;;;;31.90;8.60;;;;;;;;;;5067097;28;20040;-71
2021/12/18 11:07:30;;;;;;;23.97;7.47;;;;;;;;;;5082924;28;20044;-72
2021/12/18 11:10:12;;;;;;;19.80;7.07;;;;;;;;;;5076530;28;20056;-70
2021/12/18 11:15:25;;;;;;;29.43;8.30;;;;;;;;;;5077259;28;20040;-70
2021/12/18 11:17:51;;;;;;;40.80;8.60;;;;;;;;;;5065840;28;20134;-70
2021/12/18 11:20:18;;;;;;;30.17;7.77;;;;;;;;;;5089163;28;20052;-71
2021/12/18 11:22:44;;;;;;;22.00;7.47;;;;;;;;;;5089862;28;20044;-75
2021/12/18 11:25:12;;;;;;;42.33;10.60;;;;;;;;;;5051893;28;20135;-76
2021/12/18 11:27:38;;;;;;;35.17;8.60;;;;;;;;;;5080461;28;20088;-75
2021/12/18 11:30:12;;;;;;;32.73;8.70;;;;;;;;;;5056512;28;20128;-75
2021/12/18 11:32:42;;;;;;;30.83;8.13;;;;;;;;;;5054882;28;20052;-75
2021/12/18 11:35:10;;;;;;;32.47;7.97;;;;;;;;;;5087696;28;20077;-75
2021/12/18 11:37:40;;;;;;;32.87;7.87;;;;;;;;;;5073715;28;20043;-76
2021/12/18 11:40:06;;;;;;;31.53;9.07;;;;;;;;;;5076840;28;20043;-75
2021/12/18 11:42:33;;;;;;;61.43;11.23;;;;;;;;;;5105012;28;20040;-76
2021/12/18 11:45:01;;;;;;;44.87;10.33;;;;;;;;;;5065117;28;20456;-76
2021/12/18 11:47:29;;;;;;;45.93;10.10;;;;;;;;;;5054372;28;20055;-75
2021/12/18 11:49:57;;;;;;;42.63;9.90;;;;;;;;;;5051719;28;20044;-76
2021/12/18 11:52:23;;;;;;;38.97;10.33;;;;;;;;;;5057355;28;20044;-76
2021/12/18 11:54:57;;;;;;;26.73;8.40;;;;;;;;;;5089541;28;20186;-75
2021/12/18 11:57:35;;;;;;;39.58;10.48;;;;;;;;;;5079194;28;20059;-76
2021/12/18 12:00:01;;;;;;;42.43;10.97;;;;;;;;;;5075684;28;20055;-75
2021/12/18 12:02:45;;;;;;;33.47;9.60;;;;;;;;;;5064788;28;20053;-75
2021/12/18 12:05:11;;;;;;;25.33;7.45;;;;;;;;;;5087489;28;20040;-75
2021/12/18 12:07:37;;;;;;;16.03;6.27;;;;;;;;;;5068390;28;20096;-75
2021/12/18 12:10:11;;;;;;;51.50;11.73;;;;;;;;;;5064708;28;20044;-75
2021/12/18 12:12:48;;;;;;;15.37;5.17;;;;;;;;;;5083257;28;20049;-75
2021/12/18 12:15:15;;;;;;;12.00;3.60;;;;;;;;;;5070034;28;20045;-78
2021/12/18 12:18:00;;;;;;;13.17;3.47;;;;;;;;;;5052215;28;20052;-75
2021/12/18 12:20:34;;;;;;;13.43;4.00;;;;;;;;;;5086593;28;20051;-77
2021/12/18 12:23:02;;;;;;;11.03;3.73;;;;;;;;;;5070293;28;20045;-77
2021/12/18 12:25:49;;;;;;;13.37;3.10;;;;;;;;;;5065889;28;20083;-76
2021/12/18 12:28:23;;;;;;;12.13;3.47;;;;;;;;;;5075743;28;20063;-77
2021/12/18 12:30:49;;;;;;;;;;;;;;;;;;5069610;28;20044;-76
2021/12/18 12:33:21;;;;;;;9.23;2.90;;;;;;;;;;5076612;28;19920;-76
2021/12/18 12:35:53;;;;;;;8.77;2.80;;;;;;;;;;5070492;28;20063;-76
2021/12/18 12:38:23;;;;;;;8.30;2.53;;;;;;;;;;5090812;28;20048;-76
2021/12/18 12:40:49;;;;;;;7.50;2.87;;;;;;;;;;5072383;28;20069;-76
2021/12/18 12:43:16;;;;;;;7.83;2.70;;;;;;;;;;5072644;28;20040;-76
2021/12/18 12:45:44;;;;;;;8.63;2.70;;;;;;;;;;5072360;28;20050;-76
2021/12/18 12:48:11;;;;;;;6.50;2.20;;;;;;;;;;5055416;28;20052;-76
2021/12/18 12:50:37;;;;;;;8.23;2.70;;;;;;;;;;5072176;28;20048;-76
2021/12/18 12:53:03;;;;;;;7.13;2.60;;;;;;;;;;5071995;28;20044;-76
2021/12/18 12:55:39;;;;;;;8.60;2.43;;;;;;;;;;5071782;28;20159;-77
2021/12/18 12:58:15;;;;;;;7.80;3.13;;;;;;;;;;5071824;28;20071;-76
2021/12/18 13:00:42;;;;;;;6.77;2.87;;;;;;;;;;5071427;28;20058;-76
2021/12/18 13:03:11;;;;;;;7.70;2.90;;;;;;;;;;5071937;28;20079;-76
2021/12/18 13:05:48;;;;;;;7.50;2.50;;;;;;;;;;5071498;28;20048;-77
2021/12/18 13:08:15;;;;;;;8.83;2.90;;;;;;;;;;5071847;28;20048;-76
2021/12/18 13:10:41;;;;;;;8.67;2.80;;;;;;;;;;5071482;28;20389;-76
2021/12/18 13:13:09;;;;;;;11.50;3.50;;;;;;;;;;5070695;28;20123;-76
2021/12/18 13:15:50;;;;;;;12.13;3.30;;;;;;;;;;5071241;28;20546;-76
2021/12/18 13:18:16;;;;;;;9.63;3.67;;;;;;;;;;5070714;28;20563;-76
2021/12/18 13:20:44;;;;;;;9.70;3.70;;;;;;;;;;5054522;28;20547;-77
2021/12/18 13:23:14;;;;;;;7.53;3.20;;;;;;;;;;5070449;28;20131;-77
2021/12/18 13:25:47;;;;;;;10.60;3.90;;;;;;;;;;5070973;28;20120;-76
2021/12/18 13:28:13;;;;;;;11.70;4.40;;;;;;;;;;5071765;28;20048;-76
2021/12/18 13:30:41;;;;;;;13.07;3.83;;;;;;;;;;5069370;28;20063;-76
2021/12/18 13:33:07;;;;;;;12.47;3.70;;;;;;;;;;5071403;28;20051;-76
2021/12/18 13:35:35;;;;;;;14.77;4.67;;;;;;;;;;5071156;28;20131;-76
2021/12/18 13:38:05;;;;;;;22.23;6.27;;;;;;;;;;5070982;28;20082;-76
2021/12/18 13:40:33;;;;;;;14.43;5.33;;;;;;;;;;5070771;28;20047;-76
2021/12/18 13:43:08;;;;;;;16.97;5.77;;;;;;;;;;5070671;28;20043;-76
2021/12/18 13:45:47;;;;;;;13.03;4.57;;;;;;;;;;5067427;28;20127;-76
2021/12/18 13:48:13;;;;;;;12.20;4.50;;;;;;;;;;5070265;28;20436;-76
2021/12/18 13:50:39;;;;;;;12.37;4.03;;;;;;;;;;5061895;28;20040;-76
2021/12/18 13:53:06;;;;;;;13.47;4.50;;;;;;;;;;5065204;28;20054;-76
2021/12/18 13:55:32;;;;;;;13.00;5.00;;;;;;;;;;5069457;28;20044;-76
2021/12/18 13:57:58;;;;;;;13.60;5.17;;;;;;;;;;5065447;28;20135;-76
2021/12/18 14:00:24;;;;;;;21.13;5.47;;;;;;;;;;5059237;28;20409;-76
2021/12/18 14:02:50;;;;;;;12.97;5.03;;;;;;;;;;5062240;28;20515;-76
2021/12/18 14:05:16;;;;;;;15.33;5.70;;;;;;;;;;5056943;28;20037;-76
2021/12/18 14:07:43;;;;;;;13.40;5.10;;;;;;;;;;5058718;28;20098;-76
2021/12/18 14:10:09;;;;;;;19.57;6.17;;;;;;;;;;5061332;28;20101;-76
2021/12/18 14:12:35;;;;;;;17.63;5.73;;;;;;;;;;5068957;28;20083;-76
2021/12/18 14:15:01;;;;;;;14.47;5.53;;;;;;;;;;5070298;28;20063;-76
2021/12/18 14:17:27;;;;;;;14.23;5.43;;;;;;;;;;5046168;28;20083;-76
2021/12/18 14:19:54;;;;;;;20.47;5.97;;;;;;;;;;5046978;28;20051;-76
2021/12/18 14:22:24;;;;;;;14.20;5.77;;;;;;;;;;5058681;28;20093;-76
2021/12/18 14:24:59;;;;;;;12.50;5.77;;;;;;;;;;5057675;28;20032;-76
2021/12/18 14:27:36;;;;;;;11.40;4.30;;;;;;;;;;5063412;28;20131;-76
2021/12/18 14:30:03;;;;;;;15.30;4.00;;;;;;;;;;5062770;28;20147;-76
2021/12/18 14:32:29;;;;;;;11.63;4.10;;;;;;;;;;5065532;28;20525;-76
2021/12/18 14:35:02;;;;;;;16.27;4.67;;;;;;;;;;5063574;28;20120;-76
2021/12/18 14:37:28;;;;;;;9.38;4.55;;;;;;;;;;5062277;28;20187;-76
2021/12/18 14:39:56;;;;;;;19.90;5.10;;;;;;;;;;5081684;28;20039;-76
2021/12/18 14:42:28;;;;;;;14.87;4.73;;;;;;;;;;5063366;28;20055;-76
2021/12/18 14:45:09;;;;;;;21.67;6.03;;;;;;;;;;5078923;28;20044;-76
2021/12/18 14:47:36;;;;;;;16.63;5.50;;;;;;;;;;5078164;28;20075;-76
2021/12/18 14:50:09;;;;;;;14.00;4.63;;;;;;;;;;5063422;28;20862;-76
2021/12/18 14:52:49;;;;;;;18.17;4.90;;;;;;;;;;5070573;28;20052;-75
2021/12/18 14:55:15;;;;;;;15.73;6.10;;;;;;;;;;5090464;28;20048;-75
2021/12/18 14:57:51;;;;;;;20.07;8.50;;;;;;;;;;5090666;28;20074;-75
2021/12/18 15:00:21;;;;;;;18.97;6.00;;;;;;;;;;5074019;28;20502;-75
2021/12/18 15:02:55;;;;;;;15.60;6.37;;;;;;;;;;5089644;28;20044;-76
2021/12/18 15:05:21;;;;;;;17.73;6.30;;;;;;;;;;5091112;28;20055;-76
2021/12/18 15:08:02;;;;;;;14.60;5.53;;;;;;;;;;5091953;28;20093;-76
2021/12/18 15:10:45;;;;;;;16.20;5.47;;;;;;;;;;5085843;28;20101;-75
2021/12/18 15:13:12;;;;;;;22.10;5.88;;;;;;;;;;5091173;28;20040;-75
2021/12/18 15:15:38;;;;;;;18.80;6.20;;;;;;;;;;5086489;28;20507;-75
2021/12/18 15:18:04;;;;;;;13.63;5.00;;;;;;;;;;5090600;28;20044;-75
2021/12/18 15:20:30;;;;;;;17.43;5.40;;;;;;;;;;5088591;28;20044;-75